Time;durP1;ratioP1;P1;durP2;ratioP2;P2;SDS_P1;SDS_P2;PMS_P1;PMS_P2;Temp;Humidity;BMP_temperature;BMP_pressure;BME280_temperature;BME280_humidity;BME280_pressure;Samples;Min_cycle;Max_cycle;Signal;HPM_P1;HPM_P2
2023/03/30 00:00:17;;;;;;;;;;;;;;;19.09;27.64;101612.66;103279;1295;60574;-82
2023/03/30 00:02:47;;;;;;;;;;;;;;;19.08;27.54;101613.79;103387;1292;72576;-83
2023/03/30 00:05:14;;;;;;;;;;;;;;;19.09;27.51;101614.69;103295;1294;74624;-83
2023/03/30 00:07:41;;;;;;;;;;;;;;;19.09;27.63;101617.33;103341;1293;60473;-83
2023/03/30 00:10:08;;;;;;;;;;;;;;;19.08;27.53;101615.23;103275;1294;60658;-83
2023/03/30 00:12:33;;;;;;;;;;;;;;;19.09;27.50;101615.74;103297;1291;72638;-83
2023/03/30 00:14:59;;;;;;;;;;;;;;;19.08;27.59;101615.21;103361;1290;60596;-83
2023/03/30 00:17:28;;;;;;;;;;;;;;;19.09;27.60;101617.89;103485;1295;60650;-83
2023/03/30 00:19:55;;;;;;;;;;;;;;;19.09;27.53;101621.83;103504;1291;60892;-82
2023/03/30 00:22:21;;;;;;;;;;;;;;;19.08;27.48;101622.54;103482;1289;72665;-83
2023/03/30 00:24:46;;;;;;;;;;;;;;;19.08;27.52;101620.95;103448;1295;60693;-84
2023/03/30 00:27:12;;;;;;;;;;;;;;;19.08;27.48;101615.41;103471;1295;60516;-83
2023/03/30 00:29:38;;;;;;;;;;;;;;;19.09;27.51;101618.25;103566;1289;60604;-84
2023/03/30 00:32:03;;;;;;;;;;;;;;;19.08;27.55;101612.56;103521;1289;60533;-84
2023/03/30 00:34:29;;;;;;;;;;;;;;;19.08;27.51;101607.39;103446;1290;72339;-84
2023/03/30 00:36:56;;;;;;;;;;;;;;;19.08;27.45;101609.00;103481;1295;60578;-84
2023/03/30 00:39:25;;;;;;;;;;;;;;;19.08;27.47;101606.52;103441;1294;61172;-84
2023/03/30 00:41:51;;;;;;;;;;;;;;;19.08;27.31;101606.52;103545;1290;60629;-84
2023/03/30 00:44:35;;;;;;;;;;;;;;;19.08;27.30;101615.08;103500;1294;60480;-83
2023/03/30 00:47:01;;;;;;;;;;;;;;;19.08;27.45;101611.70;103316;1289;73672;-83
2023/03/30 00:49:26;;;;;;;;;;;;;;;19.07;27.47;101616.17;103526;1289;60667;-83
2023/03/30 00:51:52;;;;;;;;;;;;;;;19.07;27.30;101619.75;103484;1295;60590;-84
2023/03/30 00:54:18;;;;;;;;;;;;;;;19.07;27.42;101620.10;103503;1295;60603;-83
2023/03/30 00:56:44;;;;;;;;;;;;;;;19.07;27.38;101619.77;103399;1295;60632;-84
2023/03/30 00:59:10;;;;;;;;;;;;;;;19.07;27.28;101625.48;103447;1289;60613;-83
2023/03/30 01:01:37;;;;;;;;;;;;;;;19.07;27.37;101625.11;103515;1294;60648;-84
2023/03/30 01:04:06;;;;;;;;;;;;;;;19.07;27.43;101624.41;103566;1290;61191;-83
2023/03/30 01:06:33;;;;;;;;;;;;;;;19.07;27.25;101619.94;103486;1294;73664;-83
2023/03/30 01:08:59;;;;;;;;;;;;;;;19.07;27.28;101618.87;103459;1302;60511;-84
2023/03/30 01:11:27;;;;;;;;;;;;;;;19.07;27.36;101623.49;103492;1290;60591;-84
2023/03/30 01:13:55;;;;;;;;;;;;;;;19.07;27.51;101622.27;103420;1290;60597;-83
2023/03/30 01:16:44;;;;;;;;;;;;;;;19.07;27.42;101622.26;103620;1290;72653;-83
2023/03/30 01:19:18;;;;;;;;;;;;;;;19.07;27.38;101620.30;103113;1296;73674;-83
2023/03/30 01:21:50;;;;;;;;;;;;;;;19.07;27.35;101623.68;103081;1295;60939;-83
2023/03/30 01:24:35;;;;;;;;;;;;;;;19.07;27.38;101626.73;103184;1298;61248;-83
2023/03/30 01:27:08;;;;;;;;;;;;;;;19.07;27.36;101629.74;103161;1299;72509;-82
2023/03/30 01:29:46;;;;;;;;;;;;;;;19.07;27.25;101628.50;103019;1300;73734;-83
2023/03/30 01:32:33;;;;;;;;;;;;;;;19.07;27.28;101628.15;103178;1295;60901;-84
2023/03/30 01:35:17;;;;;;;;;;;;;;;19.07;27.48;101626.90;103332;1298;60652;-84
2023/03/30 01:38:01;;;;;;;;;;;;;;;19.07;27.25;101627.26;103879;1297;73583;-82
2023/03/30 01:40:31;;;;;;;;;;;;;;;19.08;27.34;101629.00;103565;1295;74652;-82
2023/03/30 01:42:57;;;;;;;;;;;;;;;19.07;27.42;101626.34;103037;1300;60631;-84
2023/03/30 01:45:29;;;;;;;;;;;;;;;19.08;27.30;101627.57;103056;1298;60826;-84
2023/03/30 01:48:02;;;;;;;;;;;;;;;19.08;27.38;101622.54;103083;1296;72330;-83
2023/03/30 01:50:41;;;;;;;;;;;;;;;19.08;27.29;101626.11;102908;1300;74658;-82
2023/03/30 01:53:20;;;;;;;;;;;;;;;19.08;27.40;101630.25;103166;1295;61066;-84
2023/03/30 01:55:57;;;;;;;;;;;;;;;19.08;27.29;101630.23;103197;1295;60438;-84
2023/03/30 01:58:33;;;;;;;;;;;;;;;19.08;27.36;101629.18;103438;1294;72522;-84
2023/03/30 02:00:59;;;;;;;;;;;;;;;19.08;27.26;101624.71;103529;1289;74806;-84
2023/03/30 02:03:53;;;;;;;;;;;;;;;19.07;27.25;101630.63;103552;1294;60635;-83
2023/03/30 02:06:38;;;;;;;;;;;;;;;19.08;27.30;101628.13;103095;1298;60919;-84
2023/03/30 02:09:11;;;;;;;;;;;;;;;19.07;27.29;101627.95;103103;1295;72548;-83
2023/03/30 02:11:37;;;;;;;;;;;;;;;19.07;27.23;101624.20;102945;1295;74866;-83
2023/03/30 02:14:05;;;;;;;;;;;;;;;19.07;27.29;101625.45;102926;1295;60785;-84
2023/03/30 02:16:33;;;;;;;;;;;;;;;19.07;27.34;101628.86;102899;1297;60663;-83
2023/03/30 02:19:02;;;;;;;;;;;;;;;19.08;27.25;101630.97;102883;1300;72610;-82
2023/03/30 02:21:28;;;;;;;;;;;;;;;19.07;27.17;101631.38;103059;1295;74230;-82
2023/03/30 02:23:56;;;;;;;;;;;;;;;19.07;27.24;101640.45;102996;1295;61856;-83
2023/03/30 02:26:22;;;;;;;;;;;;;;;19.07;27.17;101642.77;103094;1298;60495;-84
2023/03/30 02:28:49;;;;;;;;;;;;;;;19.07;27.14;101646.53;103115;1299;61198;-83
2023/03/30 02:31:14;;;;;;;;;;;;;;;19.07;27.27;101646.71;102962;1295;60716;-84
2023/03/30 02:33:43;;;;;;;;;;;;;;;19.06;27.17;101643.34;102950;1295;60601;-84
2023/03/30 02:36:16;;;;;;;;;;;;;;;19.06;27.23;101647.08;103109;1295;60941;-84
2023/03/30 02:38:42;;;;;;;;;;;;;;;19.07;27.24;101646.17;103068;1295;72675;-84
2023/03/30 02:41:14;;;;;;;;;;;;;;;19.06;27.08;101645.86;103101;1299;60607;-84
2023/03/30 02:43:55;;;;;;;;;;;;;;;19.06;27.17;101651.92;103279;1294;61119;-83
2023/03/30 02:46:41;;;;;;;;;;;;;;;19.06;27.13;101646.21;103510;1291;60490;-84
2023/03/30 02:49:13;;;;;;;;;;;;;;;19.06;27.22;101648.20;103490;1289;72624;-82
2023/03/30 02:51:50;;;;;;;;;;;;;;;19.05;27.16;101648.91;103379;1291;73387;-83
2023/03/30 02:54:19;;;;;;;;;;;;;;;19.05;27.09;101647.86;103570;1289;61757;-84
2023/03/30 02:56:47;;;;;;;;;;;;;;;19.05;27.20;101646.42;103464;1291;60494;-84
2023/03/30 02:59:34;;;;;;;;;;;;;;;19.05;27.16;101646.61;103588;1289;71449;-83
2023/03/30 03:02:03;;;;;;;;;;;;;;;19.06;27.10;101647.30;103120;1289;74741;-83
2023/03/30 03:04:28;;;;;;;;;;;;;;;19.06;27.07;101649.44;103494;1289;61060;-84
2023/03/30 03:06:54;;;;;;;;;;;;;;;19.05;27.08;101651.79;103498;1289;60504;-83
2023/03/30 03:09:20;;;;;;;;;;;;;;;19.05;27.20;101650.88;103485;1295;60639;-83
2023/03/30 03:11:46;;;;;;;;;;;;;;;19.05;27.08;101654.27;103468;1292;60590;-83
2023/03/30 03:14:12;;;;;;;;;;;;;;;19.04;27.07;101657.17;103502;1289;60663;-83
2023/03/30 03:16:38;;;;;;;;;;;;;;;19.05;27.15;101654.66;103514;1289;60529;-83
2023/03/30 03:19:03;;;;;;;;;;;;;;;19.05;26.96;101654.31;103539;1289;60577;-84
2023/03/30 03:21:30;;;;;;;;;;;;;;;19.05;27.06;101656.09;103409;1289;73481;-83
2023/03/30 03:23:55;;;;;;;;;;;;;;;19.05;26.94;101657.52;103495;1289;73611;-83
2023/03/30 03:26:23;;;;;;;;;;;;;;;19.05;26.92;101657.88;103500;1292;60584;-84
2023/03/30 03:28:49;;;;;;;;;;;;;;;19.05;27.03;101662.34;103487;1295;60584;-82
2023/03/30 03:31:15;;;;;;;;;;;;;;;19.05;27.05;101666.45;103578;1289;60514;-83
2023/03/30 03:33:40;;;;;;;;;;;;;;;19.04;27.08;101663.96;103527;1289;60644;-84
2023/03/30 03:36:07;;;;;;;;;;;;;;;19.04;27.10;101666.48;103706;1290;60593;-84
2023/03/30 03:38:33;;;;;;;;;;;;;;;19.04;26.89;101672.17;103666;1292;60529;-82
2023/03/30 03:41:01;;;;;;;;;;;;;;;19.04;26.99;101676.27;103535;1289;60661;-83
2023/03/30 03:43:27;;;;;;;;;;;;;;;19.04;26.95;101682.16;103530;1289;60529;-83
2023/03/30 03:45:52;;;;;;;;;;;;;;;19.04;26.96;101685.55;103540;1289;60657;-83
2023/03/30 03:48:18;;;;;;;;;;;;;;;19.05;27.04;101682.34;103975;1289;60571;-82
2023/03/30 03:50:44;;;;;;;;;;;;;;;19.05;26.93;101688.39;103727;1289;60549;-82
2023/03/30 03:53:10;;;;;;;;;;;;;;;19.04;26.97;101690.52;103418;1295;60584;-84
2023/03/30 03:55:36;;;;;;;;;;;;;;;19.04;26.95;101693.75;103441;1296;74700;-82
2023/03/30 03:58:04;;;;;;;;;;;;;;;19.05;26.96;101693.91;103857;1292;61068;-82
2023/03/30 04:00:30;;;;;;;;;;;;;;;19.05;27.07;101698.88;104269;1292;60591;-83
2023/03/30 04:02:56;;;;;;;;;;;;;;;19.06;26.90;101697.61;103452;1292;60501;-84
2023/03/30 04:05:22;;;;;;;;;;;;;;;19.06;27.13;101706.86;103433;1296;61125;-84
2023/03/30 04:07:47;;;;;;;;;;;;;;;19.05;26.97;101701.55;103353;1292;60667;-84
2023/03/30 04:10:13;;;;;;;;;;;;;;;19.05;26.95;101704.77;103333;1294;60507;-85
2023/03/30 04:12:41;;;;;;;;;;;;;;;19.05;26.93;101704.98;103452;1292;60535;-83
2023/03/30 04:15:07;;;;;;;;;;;;;;;19.04;26.98;101706.94;103357;1292;72474;-83
2023/03/30 04:17:33;;;;;;;;;;;;;;;19.04;26.97;101713.94;103401;1292;60779;-83
2023/03/30 04:20:04;;;;;;;;;;;;;;;19.03;26.80;101718.95;103313;1292;60703;-84
2023/03/30 04:22:40;;;;;;;;;;;;;;;19.02;26.81;101721.90;103258;1295;61211;-83
2023/03/30 04:25:08;;;;;;;;;;;;;;;18.97;26.92;101721.39;103471;1290;72617;-84
2023/03/30 04:27:36;;;;;;;;;;;;;;;18.92;27.15;101727.71;103623;1294;73662;-83
2023/03/30 04:30:06;;;;;;;;;;;;;;;18.85;27.33;101728.90;103738;1295;60993;-83
2023/03/30 04:32:37;;;;;;;;;;;;;;;18.79;27.32;101731.67;103688;1289;60929;-84
2023/03/30 04:35:04;;;;;;;;;;;;;;;18.72;27.42;101733.43;103650;1293;72856;-84
2023/03/30 04:37:31;;;;;;;;;;;;;;;18.66;27.46;101737.98;103788;1289;74537;-83
2023/03/30 04:39:58;;;;;;;;;;;;;;;18.59;27.56;101736.85;103589;1289;60526;-83
2023/03/30 04:42:29;;;;;;;;;;;;;;;18.54;27.56;101737.63;103816;1292;60555;-82
2023/03/30 04:44:57;;;;;;;;;;;;;;;18.48;27.59;101740.57;103659;1289;72274;-82
2023/03/30 04:47:26;;;;;;;;;;;;;;;18.44;27.44;101742.90;103601;1289;73133;-83
2023/03/30 04:49:52;;;;;;;;;;;;;;;18.39;27.49;101746.14;103693;1294;60604;-83
2023/03/30 04:52:17;;;;;;;;;;;;;;;18.34;27.30;101754.73;103702;1289;62060;-83
2023/03/30 04:54:43;;;;;;;;;;;;;;;18.28;27.19;101753.92;103732;1292;60638;-84
2023/03/30 04:57:09;;;;;;;;;;;;;;;18.21;27.06;101752.10;103952;1289;60484;-84
2023/03/30 04:59:35;;;;;;;;;;;;;;;18.17;27.13;101751.58;104070;1288;61995;-84
2023/03/30 05:02:02;;;;;;;;;;;;;;;18.14;26.97;101759.38;103890;1289;60580;-84
2023/03/30 05:04:27;;;;;;;;;;;;;;;18.11;26.99;101759.15;103744;1290;61367;-81
2023/03/30 05:06:53;;;;;;;;;;;;;;;18.06;26.83;101763.80;103853;1289;60654;-86
2023/03/30 05:09:18;;;;;;;;;;;;;;;17.99;26.92;101761.23;104101;1289;60631;-82
2023/03/30 05:11:44;;;;;;;;;;;;;;;17.99;26.80;101763.57;103902;1289;60597;-83
2023/03/30 05:14:09;;;;;;;;;;;;;;;18.00;26.68;101764.79;104120;1290;60537;-83
2023/03/30 05:16:35;;;;;;;;;;;;;;;18.01;26.70;101763.32;104217;1292;61298;-83
2023/03/30 05:19:02;;;;;;;;;;;;;;;18.03;26.61;101765.19;104019;1288;73481;-82
2023/03/30 05:21:30;;;;;;;;;;;;;;;18.03;26.61;101759.10;104619;1290;60520;-83
2023/03/30 05:23:55;;;;;;;;;;;;;;;18.05;26.48;101757.95;104031;1289;61160;-83
2023/03/30 05:26:21;;;;;;;;;;;;;;;18.06;26.47;101752.92;104107;1289;60587;-83
2023/03/30 05:28:46;;;;;;;;;;;;;;;18.07;26.42;101748.09;104442;1289;60587;-83
2023/03/30 05:31:12;;;;;;;;;;;;;;;18.08;26.37;101748.73;104485;1289;60661;-83
2023/03/30 05:33:37;;;;;;;;;;;;;;;18.11;26.17;101743.98;104130;1294;60461;-82
2023/03/30 05:36:03;;;;;;;;;;;;;;;18.17;26.26;101743.74;104385;1288;61119;-82
2023/03/30 05:38:29;;;;;;;;;;;;;;;18.24;26.13;101743.40;104330;1289;60478;-82
2023/03/30 05:40:56;;;;;;;;;;;;;;;18.31;26.11;101743.83;104302;1292;60555;-83
2023/03/30 05:43:22;;;;;;;;;;;;;;;18.38;26.07;101748.86;104305;1289;59455;-84
2023/03/30 05:45:47;;;;;;;;;;;;;;;18.44;26.12;101753.21;104311;1289;59419;-83
2023/03/30 05:48:13;;;;;;;;;;;;;;;18.50;26.14;101759.02;104094;1289;60459;-82
2023/03/30 05:50:38;;;;;;;;;;;;;;;18.53;26.02;101756.19;103927;1289;60520;-82
2023/03/30 05:53:04;;;;;;;;;;;;;;;18.54;26.04;101757.75;104402;1293;60578;-83
2023/03/30 05:55:29;;;;;;;;;;;;;;;18.55;25.72;101759.52;104411;1289;59327;-83
2023/03/30 05:57:55;;;;;;;;;;;;;;;18.56;25.57;101757.83;104440;1289;60588;-83
2023/03/30 06:00:21;;;;;;;;;;;;;;;18.56;25.51;101760.33;104170;1294;60654;-83
2023/03/30 06:02:47;;;;;;;;;;;;;;;18.55;25.55;101764.67;104325;1289;60325;-82
2023/03/30 06:05:13;;;;;;;;;;;;;;;18.54;25.51;101762.42;104265;1290;60587;-81
2023/03/30 06:07:38;;;;;;;;;;;;;;;18.53;25.39;101760.65;104249;1293;60594;-83
2023/03/30 06:10:04;;;;;;;;;;;;;;;18.54;25.45;101763.31;104262;1288;60364;-84
2023/03/30 06:12:31;;;;;;;;;;;;;;;18.54;25.51;101765.64;104169;1289;61226;-84
2023/03/30 06:14:56;;;;;;;;;;;;;;;18.52;25.35;101767.67;104076;1289;60506;-81
2023/03/30 06:17:22;;;;;;;;;;;;;;;18.51;25.38;101765.05;104440;1292;60575;-81
2023/03/30 06:19:47;;;;;;;;;;;;;;;18.53;25.33;101765.65;104729;1289;60487;-82
2023/03/30 06:22:13;;;;;;;;;;;;;;;18.58;25.41;101770.78;104479;1289;60571;-82
2023/03/30 06:24:40;;;;;;;;;;;;;;;18.63;25.39;101776.60;104438;1289;60490;-83
2023/03/30 06:27:06;;;;;;;;;;;;;;;18.68;25.38;101778.55;104406;1292;71323;-82
2023/03/30 06:29:31;;;;;;;;;;;;;;;18.73;25.34;101777.07;104378;1289;60677;-83
2023/03/30 06:32:00;;;;;;;;;;;;;;;18.79;25.34;101780.90;104409;1288;60472;-83
2023/03/30 06:34:26;;;;;;;;;;;;;;;18.84;25.39;101786.35;104584;1289;60559;-82
2023/03/30 06:36:52;;;;;;;;;;;;;;;18.90;25.42;101790.02;104433;1289;60499;-82
2023/03/30 06:39:18;;;;;;;;;;;;;;;18.94;25.37;101792.01;104919;1289;59451;-82
2023/03/30 06:41:44;;;;;;;;;;;;;;;18.96;25.18;101790.31;104504;1289;60564;-83
2023/03/30 06:44:13;;;;;;;;;;;;;;;18.97;25.08;101786.50;104790;1294;60441;-83
2023/03/30 06:46:42;;;;;;;;;;;;;;;18.98;25.28;101785.02;104876;1294;73937;-83
2023/03/30 06:49:10;;;;;;;;;;;;;;;18.98;25.25;101792.16;104619;1291;74744;-84
2023/03/30 06:51:36;;;;;;;;;;;;;;;18.98;25.14;101793.77;104763;1289;60613;-83
2023/03/30 06:54:02;;;;;;;;;;;;;;;18.98;25.16;101797.70;104693;1289;60570;-82
2023/03/30 06:56:27;;;;;;;;;;;;;;;18.98;25.01;101795.73;104686;1289;61224;-83
2023/03/30 06:58:53;;;;;;;;;;;;;;;18.98;24.98;101790.05;104542;1289;61036;-82
2023/03/30 07:01:19;;;;;;;;;;;;;;;18.98;24.85;101787.16;105015;1289;60504;-83
2023/03/30 07:03:45;;;;;;;;;;;;;;;18.98;24.93;101788.44;104284;1289;625503;-83
2023/03/30 07:06:11;;;;;;;;;;;;;;;18.95;24.98;101786.27;104834;1289;59263;-82
2023/03/30 07:08:36;;;;;;;;;;;;;;;18.95;25.14;101790.01;105033;1289;60597;-81
2023/03/30 07:11:05;;;;;;;;;;;;;;;18.95;25.08;101783.23;104595;1294;60585;-83
2023/03/30 07:13:31;;;;;;;;;;;;;;;18.96;25.13;101779.59;104823;1289;60376;-82
2023/03/30 07:15:57;;;;;;;;;;;;;;;18.98;25.15;101778.27;104770;1294;60399;-82
2023/03/30 07:18:23;;;;;;;;;;;;;;;19.01;25.18;101776.70;104693;1289;60842;-82
2023/03/30 07:20:48;;;;;;;;;;;;;;;19.04;25.31;101778.89;105002;1292;59289;-83
2023/03/30 07:23:15;;;;;;;;;;;;;;;19.09;25.12;101776.67;104527;1289;60530;-83
2023/03/30 07:25:40;;;;;;;;;;;;;;;19.13;25.24;101770.42;104524;1288;61558;-82
2023/03/30 07:28:06;;;;;;;;;;;;;;;19.17;25.08;101767.20;105190;1288;60425;-82
2023/03/30 07:30:32;;;;;;;;;;;;;;;19.19;25.11;101768.33;105275;1292;60447;-82
2023/03/30 07:32:58;;;;;;;;;;;;;;;19.19;25.29;101765.33;105323;1288;75345;-82
2023/03/30 07:35:23;;;;;;;;;;;;;;;19.18;25.21;101765.02;105068;1288;59157;-82
2023/03/30 07:37:49;;;;;;;;;;;;;;;19.17;25.26;101767.38;104783;1288;59400;-82
2023/03/30 07:40:16;;;;;;;;;;;;;;;19.15;25.12;101766.41;106164;1289;60049;-82
2023/03/30 07:42:42;;;;;;;;;;;;;;;19.13;25.10;101761.70;105743;1288;59224;-81
2023/03/30 07:45:08;;;;;;;;;;;;;;;19.10;25.29;101765.75;104787;1288;60523;-82
2023/03/30 07:47:33;;;;;;;;;;;;;;;19.08;25.40;101761.02;104626;1289;60498;-82
2023/03/30 07:49:59;;;;;;;;;;;;;;;19.06;25.24;101763.45;104791;1289;58910;-82
2023/03/30 07:52:25;;;;;;;;;;;;;;;19.04;25.36;101760.52;104738;1289;72409;-82
2023/03/30 07:54:51;;;;;;;;;;;;;;;19.02;25.27;101757.73;104954;1289;60541;-82
2023/03/30 07:57:17;;;;;;;;;;;;;;;19.01;25.26;101755.11;104896;1289;61093;-83
2023/03/30 07:59:42;;;;;;;;;;;;;;;19.01;25.20;101754.04;105105;1289;58716;-82
2023/03/30 08:02:11;;;;;;;;;;;;;;;18.92;25.05;101754.09;105141;1289;59329;-83
2023/03/30 08:04:37;;;;;;;;;;;;;;;18.87;25.18;101758.42;105112;1289;59285;-82
2023/03/30 08:07:02;;;;;;;;;;;;;;;18.85;25.17;101758.52;104947;1289;59332;-81
2023/03/30 08:09:29;;;;;;;;;;;;;;;18.78;25.14;101761.47;104221;1289;60604;-82
2023/03/30 08:11:56;;;;;;;;;;;;;;;18.73;25.11;101759.95;104745;1289;60593;-82
2023/03/30 08:14:25;;;;;;;;;;;;;;;18.72;25.20;101756.04;104785;1288;61183;-82
2023/03/30 08:16:50;;;;;;;;;;;;;;;18.72;25.20;101754.98;104834;1289;60621;-82
2023/03/30 08:19:16;;;;;;;;;;;;;;;18.71;25.09;101759.31;104905;1289;60594;-82
2023/03/30 08:21:41;;;;;;;;;;;;;;;18.71;25.04;101755.05;104591;1289;60593;-83
2023/03/30 08:24:08;;;;;;;;;;;;;;;18.71;25.10;101750.92;104574;1289;60531;-83
2023/03/30 08:26:35;;;;;;;;;;;;;;;18.72;24.98;101749.80;106383;1288;58326;-83
2023/03/30 08:29:01;;;;;;;;;;;;;;;18.73;25.06;101749.59;105611;1288;60504;-82
2023/03/30 08:31:27;;;;;;;;;;;;;;;18.75;25.04;101745.77;104251;1289;60450;-82
2023/03/30 08:33:52;;;;;;;;;;;;;;;18.76;25.13;101745.36;104496;1288;60677;-83
2023/03/30 08:36:19;;;;;;;;;;;;;;;18.76;25.07;101744.27;104294;1289;60486;-82
2023/03/30 08:38:45;;;;;;;;;;;;;;;18.77;25.05;101738.70;104423;1289;60517;-82
2023/03/30 08:41:21;;;;;;;;;;;;;;;18.76;24.99;101731.27;104372;1289;60606;-83
2023/03/30 08:44:13;;;;;;;;;;;;;;;18.79;25.10;101736.66;104428;1289;72520;-83
2023/03/30 08:46:41;;;;;;;;;;;;;;;18.81;25.07;101730.88;103828;1289;74897;-83
2023/03/30 08:49:10;;;;;;;;;;;;;;;18.82;25.10;101723.54;103930;1288;60445;-82
2023/03/30 08:51:38;;;;;;;;;;;;;;;18.83;25.01;101716.70;104058;1288;60422;-83
2023/03/30 08:54:05;;;;;;;;;;;;;;;18.83;24.94;101715.98;104142;1289;73445;-84
2023/03/30 08:56:41;;;;;;;;;;;;;;;18.82;24.79;101716.52;104262;1288;74611;-83
2023/03/30 08:59:22;;;;;;;;;;;;;;;18.79;24.81;101712.26;104259;1289;60418;-81
2023/03/30 09:01:54;;;;;;;;;;;;;;;18.79;24.86;101710.47;105183;1288;60386;-83
2023/03/30 09:04:24;;;;;;;;;;;;;;;18.79;24.84;101707.58;104323;1289;72186;-83
2023/03/30 09:07:04;;;;;;;;;;;;;;;18.78;24.76;101702.63;104361;1289;74841;-83
2023/03/30 09:09:30;;;;;;;;;;;;;;;18.77;24.75;101702.52;104416;1289;60505;-83
2023/03/30 09:12:03;;;;;;;;;;;;;;;18.75;24.78;101702.05;104371;1289;60534;-82
2023/03/30 09:14:35;;;;;;;;;;;;;;;18.74;24.80;101696.57;104683;1288;72316;-83
2023/03/30 09:17:14;;;;;;;;;;;;;;;18.74;24.79;101692.67;104429;1289;73562;-83
2023/03/30 09:19:44;;;;;;;;;;;;;;;18.74;24.85;101692.48;104973;1289;60587;-82
2023/03/30 09:22:10;;;;;;;;;;;;;;;18.75;24.80;101686.73;103834;1289;60427;-83
2023/03/30 09:24:36;;;;;;;;;;;;;;;18.75;24.77;101684.23;104003;1289;60459;-83
2023/03/30 09:27:04;;;;;;;;;;;;;;;18.75;24.72;101686.70;104151;1289;61782;-83
2023/03/30 09:29:31;;;;;;;;;;;;;;;18.75;24.71;101683.85;104004;1289;60934;-83
2023/03/30 09:32:06;;;;;;;;;;;;;;;18.76;24.69;101679.02;104187;1293;60422;-84
2023/03/30 09:34:39;;;;;;;;;;;;;;;18.76;24.67;101673.67;104253;1289;73951;-83
2023/03/30 09:37:09;;;;;;;;;;;;;;;18.75;24.72;101665.30;104352;1294;74107;-81
2023/03/30 09:39:34;;;;;;;;;;;;;;;18.75;24.67;101658.17;104288;1288;61120;-83
2023/03/30 09:42:04;;;;;;;;;;;;;;;18.75;24.64;101653.58;103971;1289;61819;-83
2023/03/30 09:44:34;;;;;;;;;;;;;;;18.73;24.53;101649.70;104101;1289;73387;-82
2023/03/30 09:47:00;;;;;;;;;;;;;;;18.66;24.43;101646.70;104146;1288;74387;-84
2023/03/30 09:49:27;;;;;;;;;;;;;;;18.62;24.39;101647.02;104229;1294;60587;-84
2023/03/30 09:52:04;;;;;;;;;;;;;;;18.62;24.41;101640.84;104987;1289;60552;-82
2023/03/30 09:54:36;;;;;;;;;;;;;;;18.63;24.47;101640.39;104070;1289;73632;-82
2023/03/30 09:57:02;;;;;;;;;;;;;;;18.66;24.55;101643.85;104203;1289;74681;-83
2023/03/30 09:59:35;;;;;;;;;;;;;;;18.70;24.36;101637.39;104566;1288;60558;-84
2023/03/30 10:02:22;;;;;;;;;;;;;;;18.76;24.44;101632.66;104439;1289;60798;-83
2023/03/30 10:05:00;;;;;;;;;;;;;;;18.82;24.40;101623.46;104775;1289;72519;-83
2023/03/30 10:07:27;;;;;;;;;;;;;;;18.86;24.52;101626.31;105078;1288;74578;-84
2023/03/30 10:09:52;;;;;;;;;;;;;;;18.89;24.32;101625.29;104949;1291;60367;-83
2023/03/30 10:12:18;;;;;;;;;;;;;;;18.92;24.41;101626.73;105141;1289;60546;-84
2023/03/30 10:14:43;;;;;;;;;;;;;;;18.94;24.35;101617.73;104901;1289;59371;-83
2023/03/30 10:17:21;;;;;;;;;;;;;;;18.96;24.32;101609.42;104304;1289;60590;-83
2023/03/30 10:19:52;;;;;;;;;;;;;;;18.99;24.24;101604.83;104131;1289;60594;-82
2023/03/30 10:22:21;;;;;;;;;;;;;;;19.04;24.23;101602.77;104588;1288;60588;-83
2023/03/30 10:24:49;;;;;;;;;;;;;;;19.08;24.28;101594.38;104603;1289;73457;-83
2023/03/30 10:27:15;;;;;;;;;;;;;;;19.12;24.09;101584.39;104372;1288;73872;-83
2023/03/30 10:29:44;;;;;;;;;;;;;;;19.14;24.20;101586.77;104476;1289;60479;-83
2023/03/30 10:32:12;;;;;;;;;;;;;;;19.18;24.34;101589.79;104120;1289;60331;-83
2023/03/30 10:34:39;;;;;;;;;;;;;;;19.21;24.35;101584.42;104107;1289;71979;-82
2023/03/30 10:37:15;;;;;;;;;;;;;;;19.25;24.34;101587.28;103900;1289;73718;-83
2023/03/30 10:39:42;;;;;;;;;;;;;;;19.27;24.36;101581.11;104087;1288;60638;-85
2023/03/30 10:42:08;;;;;;;;;;;;;;;19.29;24.42;101572.44;103966;1289;61440;-84
2023/03/30 10:44:42;;;;;;;;;;;;;;;19.31;24.47;101570.75;103952;1289;60595;-84
2023/03/30 10:47:07;;;;;;;;;;;;;;;19.33;24.41;101570.11;103678;1289;74402;-84
2023/03/30 10:50:02;;;;;;;;;;;;;;;19.34;24.54;101572.00;103826;1289;60663;-85
2023/03/30 10:52:28;;;;;;;;;;;;;;;19.35;24.48;101572.11;103316;1295;60711;-84
2023/03/30 10:54:55;;;;;;;;;;;;;;;19.36;24.49;101562.78;103324;1295;60655;-85
2023/03/30 10:57:23;;;;;;;;;;;;;;;19.37;24.54;101557.21;103311;1294;74706;-85
2023/03/30 11:00:08;;;;;;;;;;;;;;;19.37;24.36;101551.67;103830;1294;60823;-82
2023/03/30 11:02:41;;;;;;;;;;;;;;;19.38;24.45;101547.54;103463;1295;61697;-83
2023/03/30 11:05:11;;;;;;;;;;;;;;;19.37;24.56;101533.84;103487;1294;72358;-82
2023/03/30 11:07:36;;;;;;;;;;;;;;;19.35;24.51;101529.10;103391;1295;73610;-82
2023/03/30 11:10:04;;;;;;;;;;;;;;;19.34;24.33;101524.20;103615;1295;60482;-82
2023/03/30 11:12:33;;;;;;;;;;;;;;;19.31;24.41;101510.42;103551;1294;61690;-83
2023/03/30 11:14:59;;;;;;;;;;;;;;;19.28;24.36;101508.96;103520;1295;74555;-83
2023/03/30 11:17:28;;;;;;;;;;;;;;;19.24;24.28;101505.56;103537;1294;60474;-84
2023/03/30 11:19:58;;;;;;;;;;;;;;;19.21;24.35;101499.70;103197;1295;60838;-84
2023/03/30 11:22:38;;;;;;;;;;;;;;;19.18;24.36;101501.10;103438;1300;61244;-84
2023/03/30 11:25:06;;;;;;;;;;;;;;;19.14;24.17;101496.48;103787;1295;73430;-84
2023/03/30 11:27:35;;;;;;;;;;;;;;;19.09;24.08;101489.95;103579;1297;73499;-84
2023/03/30 11:30:16;;;;;;;;;;;;;;;19.06;24.24;101485.80;103956;1289;61030;-84
2023/03/30 11:33:00;;;;;;;;;;;;;;;19.05;24.26;101482.48;104019;1288;60418;-84
2023/03/30 11:35:28;;;;;;;;;;;;;;;19.03;24.02;101483.67;104246;1289;73454;-83
2023/03/30 11:37:59;;;;;;;;;;;;;;;19.02;24.19;101477.30;104011;1288;74616;-84
2023/03/30 11:40:26;;;;;;;;;;;;;;;19.01;24.19;101471.65;103854;1288;60794;-84
2023/03/30 11:42:52;;;;;;;;;;;;;;;18.98;24.09;101463.76;103994;1288;61102;-85
2023/03/30 11:45:18;;;;;;;;;;;;;;;18.96;23.98;101462.98;104019;1289;60469;-83
2023/03/30 11:48:07;;;;;;;;;;;;;;;18.95;24.00;101465.73;104168;1289;60575;-82
2023/03/30 11:50:35;;;;;;;;;;;;;;;18.96;23.97;101458.00;103326;1295;60779;-83
2023/03/30 11:53:00;;;;;;;;;;;;;;;18.97;24.00;101451.88;103176;1300;61099;-84
2023/03/30 11:55:38;;;;;;;;;;;;;;;18.97;23.80;101450.60;103260;1295;60614;-83
2023/03/30 11:58:24;;;;;;;;;;;;;;;18.97;23.76;101440.46;102845;1295;74699;-83
2023/03/30 12:00:55;;;;;;;;;;;;;;;18.95;23.67;101443.06;102818;1300;62121;-84
2023/03/30 12:03:27;;;;;;;;;;;;;;;18.94;23.72;101435.42;102668;1306;61972;-85
2023/03/30 12:06:11;;;;;;;;;;;;;;;18.94;23.70;101427.77;102784;1301;73591;-82
2023/03/30 12:08:49;;;;;;;;;;;;;;;18.93;23.62;101423.85;102789;1303;74329;-82
2023/03/30 12:11:21;;;;;;;;;;;;;;;18.95;23.64;101417.20;102731;1303;60658;-82
2023/03/30 12:13:47;;;;;;;;;;;;;;;18.98;23.67;101409.54;102880;1305;61264;-84
2023/03/30 12:16:14;;;;;;;;;;;;;;;19.00;23.63;101405.85;102715;1301;60568;-84
2023/03/30 12:18:58;;;;;;;;;;;;;;;19.04;23.82;101402.64;102478;1306;74067;-83
2023/03/30 12:21:29;;;;;;;;;;;;;;;19.07;23.77;101409.60;102834;1300;60500;-83
2023/03/30 12:24:21;;;;;;;;;;;;;;;19.09;23.74;101408.41;102813;1301;60590;-82
2023/03/30 12:26:47;;;;;;;;;;;;;;;19.12;23.72;101402.19;102328;1309;72673;-82
2023/03/30 12:29:14;;;;;;;;;;;;;;;19.15;23.85;101400.28;102885;1300;60553;-82
2023/03/30 12:31:57;;;;;;;;;;;;;;;19.18;23.94;101392.98;102907;1302;61606;-83
2023/03/30 12:34:25;;;;;;;;;;;;;;;19.20;23.97;101394.27;102973;1303;61797;-83